COOK1: Arkansas River Nr Coolidge, KS

                                SHEF ID:       COOK1     ARKANSAS R NR COOLIDGE, KS
STATION TYPE:
Regulating: Stage = 8.00, Flow = 2050

PRECIP STAGE STAGE(2) RIV-FLOW WTR-TEMP CONDUCT BAT-LOAD
in ft ft cfs F umho/cm volt
Ccp-Rev Ccp-Rev Ccp-Rev Ccp-Rev Ccp-Rev Ccp-Rev Ccp-Rev
(America/Chicago)
07/06 00:00 0.00 2.36 2.52 43 70.77 6212 12.95
07/06 01:00 0.00 2.38 2.53 44 69.64 6242 12.89
07/06 02:00 0.00 2.38 2.53 44 68.58 6248 12.89
07/06 03:00 0.00 2.38 2.54 44 67.53 6233 12.89
07/06 04:00 0.00 2.38 2.54 44 66.52 6233 12.83
07/06 05:00 0.00 2.39 2.55 45 65.62 6250 12.83
07/06 06:00 0.00 2.39 2.55 45 64.83 6268 12.77
07/06 07:00 0.00 2.39 2.54 45 64.18 6266 12.77
07/06 08:00 0.00 2.39 2.55 45 64.09 6273 12.77
07/06 09:00 0.00 2.38 2.54 44 65.25 6305 12.89
07/06 10:00 0.00 2.39 2.53 45 67.62 6340 13.00
07/06 11:00 0.00 2.40 2.54 46 70.77 6359 13.48
07/06 12:00 0.00 2.40 2.55 46 73.96 6304 13.71
07/06 13:00 0.00 2.40 2.54 46 76.95 6248 13.77
07/06 14:00 0.00 2.40 2.57 46 79.72 6205 13.71
07/06 15:00 0.00 2.40 2.56 46 81.30 6187 13.83
07/06 16:00 0.00 2.42 2.55 47 79.93 6176 13.24
07/06 17:00 0.00 2.42 2.57 47 80.56 6165 13.36
07/06 18:00 0.00 2.41 2.56 47 80.13 6163 13.18
07/06 19:00 0.00 2.40 2.57 46 80.29 6167 13.18
07/06 20:00 0.00 2.41 2.57 47 78.76 6165 13.18
07/06 21:00 0.00 2.39 2.55 45 76.98 6187 13.07
07/06 22:00 0.00 2.41 2.54 47 73.67 6233 13.07
07/06 23:00 ---- ---- ---- ---- ---- ---- ----
Data processed at Sun 07Jul2024 04:30 GMT

Parsing this webpage?

Checkout our new Data API! CWMSDataAPI (CDA)

Timeseries IDs (TSIDs)

TSIDs used from left to right in the data table
COOL.Precip-Inc.Total.1Hour.1Hour.Ccp-Rev
COOL.Stage.Inst.1Hour.0.Ccp-Rev
COOL.Stage-Alt.Inst.1Hour.0.Ccp-Rev
COOL.Flow.Inst.1Hour.0.Ccp-Rev
COOL.Temp-Water.Inst.1Hour.0.Ccp-Rev
COOL.Cond.Inst.1Hour.0.Ccp-Rev
COOL.Volt-Battery Load.Inst.1Hour.0.Ccp-Rev

                            

All information presented herein is the property of the government of the United States of America and may be revised or deleted at any time without prior notice. Dissemination of this information without the expressed written consent of the Public Affairs Office, Tulsa District U.S. Army Corps of Engineers is strictly prohibited. These data are gathered electronically and, as presented, have NOT undergone any form of quality control. These data are NOT guaranteed to be valid or correct.